Time;durP1;ratioP1;P1;durP2;ratioP2;P2;SDS_P1;SDS_P2;PMS_P1;PMS_P2;Temp;Humidity;BMP_temperature;BMP_pressure;BME280_temperature;BME280_humidity;BME280_pressure;Samples;Min_cycle;Max_cycle;Signal;HPM_P1;HPM_P2
2021/11/11 00:00:23;;;;;;;23.10;20.63;;;;;22.30;101324.00;;;;2078904;28;20725;-50
2021/11/11 00:01:23;;;;;;;21.15;19.00;;;;;22.30;101326.00;;;;2078584;28;20216;-49
2021/11/11 00:02:23;;;;;;;21.33;18.93;;;;;22.30;101323.00;;;;2073371;28;20695;-49
2021/11/11 00:03:24;;;;;;;21.67;19.47;;;;;22.30;101325.00;;;;2072739;28;20210;-49
2021/11/11 00:04:25;;;;;;;20.00;18.10;;;;;22.30;101328.00;;;;2071086;28;20217;-49
2021/11/11 00:05:25;;;;;;;20.80;18.70;;;;;22.30;101325.00;;;;2070545;28;20206;-50
2021/11/11 00:06:26;;;;;;;19.43;17.53;;;;;22.30;101325.00;;;;2078722;28;20453;-50
2021/11/11 00:07:26;;;;;;;19.30;17.40;;;;;22.30;101326.00;;;;2074251;28;20575;-47
2021/11/11 00:08:27;;;;;;;19.67;17.70;;;;;22.30;101326.00;;;;2070325;28;20202;-50
2021/11/11 00:09:28;;;;;;;20.20;18.30;;;;;22.20;101323.00;;;;2069566;28;20296;-49
2021/11/11 00:10:28;;;;;;;20.35;18.25;;;;;22.20;101327.00;;;;2069969;28;20657;-49
2021/11/11 00:11:29;;;;;;;19.10;17.23;;;;;22.20;101325.00;;;;2069853;28;20348;-49
2021/11/11 00:12:32;;;;;;;18.80;17.00;;;;;22.20;101312.00;;;;2070684;28;20222;-49
2021/11/11 00:13:32;;;;;;;19.40;17.40;;;;;22.20;101320.00;;;;2061978;28;20215;-48
2021/11/11 00:14:33;;;;;;;19.40;17.50;;;;;22.20;101324.00;;;;2061822;28;20700;-49
2021/11/11 00:15:33;;;;;;;18.70;16.70;;;;;22.20;101322.00;;;;2070647;28;20202;-49
2021/11/11 00:16:34;;;;;;;18.40;16.60;;;;;22.20;101326.00;;;;2070536;28;20285;-50
2021/11/11 00:17:34;;;;;;;18.43;16.53;;;;;22.20;101316.00;;;;2069675;28;20221;-49
2021/11/11 00:18:35;;;;;;;17.23;15.53;;;;;22.20;101316.00;;;;2070512;28;20750;-48
2021/11/11 00:19:36;;;;;;;18.67;16.85;;;;;22.20;101314.00;;;;2068835;28;20229;-49
2021/11/11 00:20:36;;;;;;;16.73;15.13;;;;;22.20;101319.00;;;;2069386;28;20221;-50
2021/11/11 00:21:37;;;;;;;17.30;15.60;;;;;22.10;101314.00;;;;2069319;28;20262;-47
2021/11/11 00:22:38;;;;;;;16.63;14.83;;;;;22.20;101314.00;;;;2074693;28;20681;-49
2021/11/11 00:23:38;;;;;;;17.37;15.57;;;;;22.10;101306.00;;;;2078732;28;20304;-50
2021/11/11 00:24:38;;;;;;;17.50;15.80;;;;;22.10;101307.00;;;;2078716;28;20283;-50
2021/11/11 00:25:39;;;;;;;17.10;15.50;;;;;22.10;101306.00;;;;2078739;28;20297;-47
2021/11/11 00:26:39;;;;;;;17.50;15.70;;;;;22.10;101313.00;;;;2078590;28;20270;-49
2021/11/11 00:27:40;;;;;;;16.20;14.50;;;;;22.10;101310.00;;;;2078771;28;20291;-50
2021/11/11 00:28:41;;;;;;;17.27;15.57;;;;;22.10;101306.00;;;;2078071;28;20213;-47
2021/11/11 00:29:41;;;;;;;15.73;14.23;;;;;22.10;101313.00;;;;2077923;28;20240;-49
2021/11/11 00:30:42;;;;;;;15.40;13.90;;;;;22.10;101306.00;;;;2078711;28;20336;-49
2021/11/11 00:31:42;;;;;;;17.23;15.53;;;;;22.10;101301.00;;;;2077493;28;20662;-50
2021/11/11 00:32:43;;;;;;;16.10;14.60;;;;;22.10;101304.00;;;;2073585;28;20225;-50
2021/11/11 00:33:43;;;;;;;15.32;13.90;;;;;22.10;101300.00;;;;2076891;28;20697;-49
2021/11/11 00:34:45;;;;;;;15.23;13.73;;;;;22.10;101293.00;;;;2069788;28;20206;-49
2021/11/11 00:35:45;;;;;;;16.23;14.52;;;;;22.10;101291.00;;;;2070573;28;20218;-48
2021/11/11 00:36:46;;;;;;;15.30;13.80;;;;;22.10;101291.00;;;;2069608;28;20606;-49
2021/11/11 00:37:46;;;;;;;14.97;13.47;;;;;22.00;101300.00;;;;2070488;28;20212;-50
2021/11/11 00:38:47;;;;;;;15.80;14.30;;;;;22.00;101295.00;;;;2069923;28;20300;-50
2021/11/11 00:39:49;;;;;;;15.43;13.93;;;;;22.00;101284.00;;;;2070235;28;20230;-48
2021/11/11 00:40:49;;;;;;;14.68;13.30;;;;;22.00;101296.00;;;;2069769;28;20595;-49
2021/11/11 00:41:49;;;;;;;14.40;13.00;;;;;22.00;101287.00;;;;2068046;28;20920;-55
2021/11/11 00:42:50;;;;;;;14.10;12.80;;;;;22.00;101291.00;;;;2069803;28;20218;-49
2021/11/11 00:43:50;;;;;;;14.80;13.40;;;;;22.00;101289.00;;;;2070212;28;20221;-52
2021/11/11 00:44:51;;;;;;;15.20;13.70;;;;;22.00;101288.00;;;;2070437;28;20228;-49
2021/11/11 00:45:51;;;;;;;13.77;12.47;;;;;22.00;101291.00;;;;2070157;28;20222;-51
2021/11/11 00:46:51;;;;;;;14.13;12.73;;;;;22.00;101284.00;;;;2070557;28;20707;-48
2021/11/11 00:47:54;;;;;;;13.70;12.50;;;;;22.00;101284.00;;;;2070524;28;20293;-49
2021/11/11 00:48:55;;;;;;;13.10;11.80;;;;;22.00;101278.00;;;;2068900;28;20214;-49
2021/11/11 00:49:56;;;;;;;13.63;12.32;;;;;22.00;101275.00;;;;2069983;28;20237;-49
2021/11/11 00:50:56;;;;;;;14.70;13.17;;;;;22.00;101284.00;;;;2070557;28;20579;-48
2021/11/11 00:51:57;;;;;;;13.37;12.03;;;;;22.00;101283.00;;;;2068891;28;20210;-49
2021/11/11 00:52:57;;;;;;;14.93;12.10;;;;;21.90;101282.00;;;;2070163;28;20221;-50
2021/11/11 00:53:58;;;;;;;13.80;12.50;;;;;21.90;101294.00;;;;2070059;28;20276;-47
2021/11/11 00:55:00;;;;;;;14.23;12.50;;;;;21.90;101279.00;;;;2070012;28;21058;-49
2021/11/11 00:56:00;;;;;;;13.23;11.82;;;;;22.00;101283.00;;;;2069778;28;20621;-48
2021/11/11 00:57:00;;;;;;;13.00;11.80;;;;;22.00;101278.00;;;;2070009;28;20214;-49
2021/11/11 00:58:01;;;;;;;14.07;12.23;;;;;22.00;101272.00;;;;2070414;28;20213;-49
2021/11/11 00:59:02;;;;;;;13.27;12.07;;;;;21.90;101275.00;;;;2068469;28;20264;-48
2021/11/11 01:00:05;;;;;;;12.87;11.63;;;;;22.00;101276.00;;;;2075106;28;20208;-48
2021/11/11 01:01:05;;;;;;;12.27;11.10;;;;;21.90;101277.00;;;;2078412;28;20205;-49
2021/11/11 01:02:08;;;;;;;12.17;10.97;;;;;21.90;101272.00;;;;2073514;28;20309;-49
2021/11/11 01:03:09;;;;;;;11.98;10.88;;;;;21.90;101274.00;;;;2071755;28;20232;-49
2021/11/11 01:04:10;;;;;;;12.75;11.50;;;;;21.90;101278.00;;;;2070675;28;21174;-49
2021/11/11 01:05:10;;;;;;;11.80;10.70;;;;;21.90;101277.00;;;;2061169;28;20219;-48
2021/11/11 01:06:11;;;;;;;11.73;10.63;;;;;21.90;101275.00;;;;2069471;28;20710;-50
2021/11/11 01:07:11;;;;;;;12.63;11.43;;;;;21.90;101274.00;;;;2070105;28;20467;-49
2021/11/11 01:08:12;;;;;;;12.53;11.43;;;;;21.90;101278.00;;;;2070126;28;20214;-50
2021/11/11 01:09:12;;;;;;;12.83;11.63;;;;;21.80;101275.00;;;;2069395;28;20218;-50
2021/11/11 01:10:15;;;;;;;12.43;11.23;;;;;21.90;101279.00;;;;2069738;28;20297;-47
2021/11/11 01:11:15;;;;;;;12.60;10.82;;;;;21.80;101279.00;;;;2068965;28;20225;-50
2021/11/11 01:12:15;;;;;;;11.50;10.40;;;;;21.90;101281.00;;;;2069907;28;20210;-48
2021/11/11 01:13:18;;;;;;;11.90;10.70;;;;;21.90;101278.00;;;;2069939;28;20220;-49
2021/11/11 01:14:19;;;;;;;11.60;10.52;;;;;21.80;101280.00;;;;2059537;28;20221;-48
2021/11/11 01:15:23;;;;;;;11.52;10.45;;;;;21.90;101276.00;;;;2069285;28;20218;-48
2021/11/11 01:16:24;;;;;;;12.45;11.35;;;;;21.80;101272.00;;;;2069505;28;20226;-50
2021/11/11 01:17:24;;;;;;;11.37;10.37;;;;;21.80;101270.00;;;;2070338;28;20628;-49
2021/11/11 01:18:25;;;;;;;13.60;9.73;;;;;21.80;101271.00;;;;2069535;28;20210;-48
2021/11/11 01:19:25;;;;;;;11.17;10.27;;;;;21.80;101274.00;;;;2069159;28;20218;-50
2021/11/11 01:20:26;;;;;;;11.60;10.50;;;;;21.80;101274.00;;;;2069473;28;20214;-54
2021/11/11 01:21:26;;;;;;;12.03;10.90;;;;;21.80;101285.00;;;;2069854;28;20221;-49
2021/11/11 01:22:27;;;;;;;11.37;10.27;;;;;21.80;101277.00;;;;2069990;28;20221;-48
2021/11/11 01:23:27;;;;;;;11.33;10.23;;;;;21.80;101278.00;;;;2069770;28;20221;-49
2021/11/11 01:24:28;;;;;;;10.80;9.80;;;;;21.70;101276.00;;;;2069963;28;20940;-49
2021/11/11 01:25:29;;;;;;;11.30;10.20;;;;;21.70;101266.00;;;;2069616;28;20583;-49
2021/11/11 01:26:30;;;;;;;10.65;9.68;;;;;21.80;101270.00;;;;2069885;28;20225;-49
2021/11/11 01:27:30;;;;;;;11.13;10.03;;;;;21.70;101264.00;;;;2068811;28;20206;-48
2021/11/11 01:28:31;;;;;;;10.20;9.30;;;;;21.70;101264.00;;;;2066812;28;20210;-49
2021/11/11 01:29:32;;;;;;;10.90;9.90;;;;;21.70;101262.00;;;;2068445;28;20304;-49
2021/11/11 01:30:34;;;;;;;10.70;9.60;;;;;21.70;101264.00;;;;2069948;28;20214;-50
2021/11/11 01:31:35;;;;;;;9.65;8.85;;;;;21.70;101262.00;;;;2072592;28;20728;-49
2021/11/11 01:32:35;;;;;;;9.30;8.50;;;;;21.70;101259.00;;;;2071925;28;20230;-48
2021/11/11 01:33:36;;;;;;;10.57;9.57;;;;;21.70;101260.00;;;;2072873;28;20230;-47
2021/11/11 01:34:37;;;;;;;10.83;9.83;;;;;21.70;101247.00;;;;2071254;28;20253;-49
2021/11/11 01:35:38;;;;;;;10.50;9.50;;;;;21.70;101263.00;;;;2070709;28;20465;-49
2021/11/11 01:36:38;;;;;;;9.87;8.97;;;;;21.70;101249.00;;;;2076718;28;20633;-50
2021/11/11 01:37:41;;;;;;;10.53;9.20;;;;;21.70;101250.00;;;;2079602;28;20452;-49
2021/11/11 01:38:42;;;;;;;10.20;9.30;;;;;21.70;101252.00;;;;2078451;28;20937;-48
2021/11/11 01:39:42;;;;;;;10.37;9.37;;;;;21.70;101250.00;;;;2070879;28;20230;-49
2021/11/11 01:40:43;;;;;;;10.40;9.40;;;;;21.70;101256.00;;;;2070176;28;20225;-49
2021/11/11 01:41:44;;;;;;;9.17;8.27;;;;;21.70;101247.00;;;;2070101;28;20516;-49
2021/11/11 01:42:50;;;;;;;10.55;9.50;;;;;21.60;101252.00;;;;2069307;28;20222;-50
2021/11/11 01:43:51;;;;;;;10.00;9.00;;;;;21.60;101257.00;;;;2070961;28;20316;-49
2021/11/11 01:44:54;;;;;;;9.77;8.90;;;;;21.60;101252.00;;;;2071229;28;20215;-49
2021/11/11 01:45:54;;;;;;;10.02;8.60;;;;;21.70;101247.00;;;;2071196;28;20210;-49
2021/11/11 01:46:55;;;;;;;9.70;8.80;;;;;21.70;101248.00;;;;2064092;28;20217;-49
2021/11/11 01:47:55;;;;;;;10.00;9.00;;;;;21.70;101244.00;;;;2079821;28;20217;-49
2021/11/11 01:48:57;;;;;;;9.23;8.43;;;;;21.60;101245.00;;;;2080992;28;20213;-48
2021/11/11 01:49:57;;;;;;;10.60;8.95;;;;;21.60;101236.00;;;;2073549;28;20213;-50
2021/11/11 01:50:58;;;;;;;8.70;7.93;;;;;21.60;101241.00;;;;2073425;28;20229;-48
2021/11/11 01:51:59;;;;;;;9.33;8.40;;;;;21.60;101239.00;;;;2062390;28;20214;-49
2021/11/11 01:52:59;;;;;;;9.57;8.77;;;;;21.60;101249.00;;;;2071754;28;20526;-49
2021/11/11 01:54:00;;;;;;;8.80;7.90;;;;;21.70;101268.00;;;;2071353;28;20713;-48
2021/11/11 01:55:00;;;;;;;9.23;8.33;;;;;21.60;101253.00;;;;2071570;28;20297;-50
2021/11/11 01:56:01;;;;;;;9.13;8.43;;;;;21.60;101260.00;;;;2072903;28;20714;-50
2021/11/11 01:57:02;;;;;;;8.93;8.10;;;;;21.60;101258.00;;;;2079546;28;20201;-52
2021/11/11 01:58:02;;;;;;;8.90;8.10;;;;;21.60;101247.00;;;;2077550;28;20988;-47
2021/11/11 01:59:02;;;;;;;9.17;8.33;;;;;21.60;101245.00;;;;2073148;28;20218;-50
2021/11/11 02:00:07;;;;;;;8.10;7.40;;;;;21.60;101245.00;;;;2078102;28;20585;-50
2021/11/11 02:01:08;;;;;;;8.40;7.70;;;;;21.60;101237.00;;;;2078342;28;20240;-49
2021/11/11 02:02:08;;;;;;;8.55;7.82;;;;;21.50;101240.00;;;;2077819;28;20209;-48
2021/11/11 02:03:10;;;;;;;8.83;8.03;;;;;21.60;101243.00;;;;2079111;28;20213;-49
2021/11/11 02:04:10;;;;;;;8.60;7.80;;;;;21.60;101246.00;;;;2079619;28;20214;-47
2021/11/11 02:05:12;;;;;;;8.37;7.67;;;;;21.60;101236.00;;;;2079725;28;20210;-49
2021/11/11 02:06:12;;;;;;;8.85;8.05;;;;;21.50;101232.00;;;;2079797;28;20284;-47
2021/11/11 02:07:12;;;;;;;8.27;7.47;;;;;21.50;101232.00;;;;2077870;28;20214;-48
2021/11/11 02:08:13;;;;;;;9.10;8.40;;;;;21.50;101227.00;;;;2078966;28;20217;-49
2021/11/11 02:09:16;;;;;;;8.93;8.10;;;;;21.50;101229.00;;;;2077256;28;20236;-50
2021/11/11 02:10:17;;;;;;;8.20;7.50;;;;;21.50;101238.00;;;;2079443;28;20225;-49
2021/11/11 02:11:17;;;;;;;8.67;7.73;;;;;21.50;101231.00;;;;2079349;28;20210;-49
2021/11/11 02:12:18;;;;;;;9.07;8.27;;;;;21.60;101239.00;;;;2079724;28;20217;-49
2021/11/11 02:13:18;;;;;;;7.93;7.23;;;;;21.50;101238.00;;;;2079619;28;20519;-50
2021/11/11 02:14:19;;;;;;;7.90;7.20;;;;;21.50;101234.00;;;;2079563;28;20209;-48
2021/11/11 02:15:19;;;;;;;8.10;7.40;;;;;21.50;101241.00;;;;2079405;28;20214;-50
2021/11/11 02:16:20;;;;;;;8.80;7.80;;;;;21.40;101245.00;;;;2079648;28;20233;-50
2021/11/11 02:17:30;;;;;;;8.20;7.40;;;;;21.50;101248.00;;;;2079687;28;20344;-48
2021/11/11 02:18:30;;;;;;;7.82;6.95;;;;;21.50;101235.00;;;;2074822;28;20229;-49
2021/11/11 02:19:31;;;;;;;7.70;7.10;;;;;21.50;101244.00;;;;2072209;28;20225;-49
2021/11/11 02:20:33;;;;;;;7.88;7.20;;;;;21.50;101242.00;;;;2073980;28;20241;-49
2021/11/11 02:21:37;;;;;;;7.53;6.82;;;;;21.50;101233.00;;;;2071964;28;20222;-50
2021/11/11 02:22:38;;;;;;;8.57;7.75;;;;;21.50;101241.00;;;;2074845;28;20219;-50
2021/11/11 02:23:38;;;;;;;7.43;6.83;;;;;21.50;101243.00;;;;2071357;28;20214;-50
2021/11/11 02:24:39;;;;;;;7.70;7.00;;;;;21.50;101234.00;;;;2071316;28;20229;-49
2021/11/11 02:25:39;;;;;;;8.00;7.20;;;;;21.50;101236.00;;;;2071590;28;20214;-48
2021/11/11 02:26:40;;;;;;;8.20;7.50;;;;;21.40;101239.00;;;;2071413;28;20446;-48
2021/11/11 02:27:42;;;;;;;7.80;7.10;;;;;21.40;101227.00;;;;2069854;28;20264;-50
2021/11/11 02:28:42;;;;;;;7.65;6.90;;;;;21.30;101233.00;;;;2069302;28;20221;-49
2021/11/11 02:29:43;;;;;;;7.90;7.10;;;;;21.50;101225.00;;;;2068938;28;20210;-50
2021/11/11 02:30:44;;;;;;;7.50;6.80;;;;;21.40;101228.00;;;;2070807;28;20305;-48
2021/11/11 02:31:45;;;;;;;7.50;6.80;;;;;21.40;101226.00;;;;2071153;28;20598;-49
2021/11/11 02:32:46;;;;;;;7.73;7.00;;;;;21.40;101240.00;;;;2071435;28;20241;-49
2021/11/11 02:33:54;;;;;;;7.40;6.70;;;;;21.40;101237.00;;;;2071370;28;20218;-50
2021/11/11 02:34:54;;;;;;;8.05;7.35;;;;;21.40;101229.00;;;;2071223;28;20757;-48
2021/11/11 02:35:56;;;;;;;7.67;6.97;;;;;21.40;101235.00;;;;2071486;28;20213;-49
2021/11/11 02:37:01;;;;;;;7.10;6.50;;;;;21.40;101236.00;;;;2071161;28;20301;-49
2021/11/11 02:38:02;;;;;;;7.80;7.10;;;;;21.40;101235.00;;;;2071482;28;20256;-50
2021/11/11 02:39:03;;;;;;;7.10;6.50;;;;;21.40;101230.00;;;;2077319;28;20229;-50
2021/11/11 02:40:06;;;;;;;7.53;6.80;;;;;21.40;101232.00;;;;2078921;28;21003;-49
2021/11/11 02:41:09;;;;;;;6.72;6.13;;;;;21.30;101246.00;;;;2075825;28;20228;-49
2021/11/11 02:42:10;;;;;;;7.80;7.20;;;;;21.40;101234.00;;;;2077622;28;20886;-49
2021/11/11 02:43:11;;;;;;;8.18;6.53;;;;;21.40;101238.00;;;;2077508;28;21018;-50
2021/11/11 02:44:12;;;;;;;7.68;7.07;;;;;21.40;101238.00;;;;2078732;28;20645;-49
2021/11/11 02:45:16;;;;;;;6.90;6.30;;;;;21.40;101238.00;;;;2074470;28;20197;-50
2021/11/11 02:46:16;;;;;;;7.05;6.45;;;;;21.40;101243.00;;;;2074695;28;20210;-50
2021/11/11 02:47:17;;;;;;;7.77;7.07;;;;;21.30;101239.00;;;;2079091;28;20209;-48
2021/11/11 02:48:20;;;;;;;7.43;6.77;;;;;21.30;101238.00;;;;2074087;28;20214;-50
2021/11/11 02:49:21;;;;;;;7.32;6.70;;;;;21.30;101242.00;;;;2071660;28;20480;-48
2021/11/11 02:50:21;;;;;;;7.33;6.60;;;;;21.30;101240.00;;;;2071045;28;20245;-49
2021/11/11 02:51:22;;;;;;;7.13;6.53;;;;;21.30;101250.00;;;;2072055;28;20476;-49
2021/11/11 02:52:23;;;;;;;6.97;6.37;;;;;21.30;101251.00;;;;2070315;28;20218;-48
2021/11/11 02:53:23;;;;;;;6.83;6.23;;;;;21.30;101252.00;;;;2070676;28;20222;-49
2021/11/11 02:54:24;;;;;;;7.10;6.50;;;;;21.30;101258.00;;;;2070900;28;20210;-48
2021/11/11 02:55:24;;;;;;;6.83;6.23;;;;;21.30;101251.00;;;;2066232;28;20249;-49
2021/11/11 02:56:25;;;;;;;7.77;7.03;;;;;21.30;101254.00;;;;2068257;28;20804;-48
2021/11/11 02:57:31;;;;;;;7.30;6.60;;;;;21.30;101252.00;;;;2070787;28;20208;-50
2021/11/11 02:58:31;;;;;;;7.18;6.57;;;;;21.30;101251.00;;;;2069772;28;20213;-49
2021/11/11 02:59:34;;;;;;;6.10;5.60;;;;;21.30;101244.00;;;;2070059;28;20249;-50
2021/11/11 03:00:50;;;;;;;7.50;6.80;;;;;21.30;101244.00;;;;2071034;28;20218;-49
2021/11/11 03:01:51;;;;;;;7.32;6.60;;;;;21.30;101232.00;;;;2077455;28;20241;-49
2021/11/11 03:02:52;;;;;;;6.37;5.77;;;;;21.20;101243.00;;;;2079229;28;20210;-50
2021/11/11 03:03:52;;;;;;;7.10;6.40;;;;;21.20;101249.00;;;;2079263;28;20679;-48
2021/11/11 03:04:53;;;;;;;7.10;6.40;;;;;21.30;101244.00;;;;2078429;28;20453;-49
2021/11/11 03:05:54;;;;;;;6.97;6.37;;;;;21.30;101244.00;;;;2079084;28;20279;-49
2021/11/11 03:06:55;;;;;;;6.10;5.60;;;;;21.30;101248.00;;;;2078964;28;20210;-49
2021/11/11 03:07:55;;;;;;;7.30;6.60;;;;;21.20;101250.00;;;;2078451;28;20244;-50
2021/11/11 03:08:55;;;;;;;6.50;6.00;;;;;21.20;101251.00;;;;2077936;28;20266;-47
2021/11/11 03:09:56;;;;;;;7.53;6.83;;;;;21.30;101252.00;;;;2078450;28;20248;-48
2021/11/11 03:10:57;;;;;;;7.00;6.40;;;;;21.20;101251.00;;;;2079134;28;20209;-49
2021/11/11 03:11:57;;;;;;;7.07;6.40;;;;;21.20;101249.00;;;;2078738;28;20225;-49
2021/11/11 03:12:59;;;;;;;6.93;6.33;;;;;21.20;101205.00;;;;2078594;28;20292;-50
2021/11/11 03:13:59;;;;;;;6.60;6.00;;;;;21.20;101245.00;;;;2076986;28;20213;-50
2021/11/11 03:15:00;;;;;;;6.97;6.43;;;;;21.20;101249.00;;;;2072456;28;20213;-49
2021/11/11 03:16:00;;;;;;;6.40;5.90;;;;;21.20;101244.00;;;;2075619;28;20694;-50
2021/11/11 03:17:01;;;;;;;6.53;5.93;;;;;21.20;101248.00;;;;2078342;28;20213;-49
2021/11/11 03:18:02;;;;;;;6.70;6.10;;;;;21.20;101240.00;;;;2078908;28;20686;-49
2021/11/11 03:19:02;;;;;;;6.90;6.30;;;;;21.20;101244.00;;;;2078014;28;20315;-49
2021/11/11 03:20:03;;;;;;;6.63;6.03;;;;;21.20;101257.00;;;;2078794;28;20232;-50
2021/11/11 03:21:03;;;;;;;6.83;6.23;;;;;21.20;101251.00;;;;2078635;28;20609;-49
2021/11/11 03:22:08;;;;;;;6.97;6.33;;;;;21.20;101248.00;;;;2078815;28;20720;-49
2021/11/11 03:23:08;;;;;;;7.28;6.68;;;;;21.20;101247.00;;;;2077161;28;20348;-49
2021/11/11 03:24:09;;;;;;;6.53;6.00;;;;;21.20;101244.00;;;;2073209;28;20214;-48
2021/11/11 03:25:10;;;;;;;5.90;5.40;;;;;21.20;101241.00;;;;2070645;28;20222;-49
2021/11/11 03:26:10;;;;;;;6.53;6.00;;;;;21.20;101249.00;;;;2074491;28;20256;-50
2021/11/11 03:27:11;;;;;;;6.40;5.80;;;;;21.20;101243.00;;;;2070602;28;20221;-48
2021/11/11 03:28:11;;;;;;;6.70;6.20;;;;;21.20;101243.00;;;;2071153;28;20218;-49
2021/11/11 03:29:12;;;;;;;5.97;5.47;;;;;21.10;101256.00;;;;2069810;28;20207;-49
2021/11/11 03:30:14;;;;;;;6.60;6.00;;;;;21.10;101237.00;;;;2070416;28;20233;-50
2021/11/11 03:31:15;;;;;;;5.95;5.45;;;;;21.10;101249.00;;;;2068751;28;20254;-52
2021/11/11 03:32:16;;;;;;;6.13;5.63;;;;;21.10;101252.00;;;;2070188;28;20210;-49
2021/11/11 03:33:17;;;;;;;6.75;6.15;;;;;21.10;101247.00;;;;2070256;28;20268;-49
2021/11/11 03:34:18;;;;;;;6.10;5.60;;;;;21.10;101248.00;;;;2071013;28;20259;-48
2021/11/11 03:35:19;;;;;;;6.25;5.75;;;;;21.20;101248.00;;;;2071011;28;20217;-50
2021/11/11 03:36:19;;;;;;;6.30;5.70;;;;;21.10;101243.00;;;;2069598;28;20244;-49
2021/11/11 03:37:23;;;;;;;6.90;6.40;;;;;21.10;101242.00;;;;2069098;28;20218;-49
2021/11/11 03:38:24;;;;;;;6.85;6.25;;;;;21.10;101244.00;;;;2070870;28;20622;-48
2021/11/11 03:39:25;;;;;;;6.75;6.07;;;;;21.10;101238.00;;;;2076904;28;20308;-48
2021/11/11 03:40:28;;;;;;;6.97;5.90;;;;;21.10;101247.00;;;;2076008;28;20589;-49
2021/11/11 03:41:28;;;;;;;6.35;5.85;;;;;21.10;101245.00;;;;2071258;28;20218;-49
2021/11/11 03:42:28;;;;;;;6.80;6.07;;;;;21.10;101247.00;;;;2070501;28;20341;-49
2021/11/11 03:43:29;;;;;;;7.17;6.57;;;;;21.10;101241.00;;;;2075019;28;20713;-49
2021/11/11 03:44:29;;;;;;;6.20;5.70;;;;;21.10;101212.00;;;;2078990;28;20694;-50
2021/11/11 03:45:30;;;;;;;6.43;5.93;;;;;21.10;101210.00;;;;2079238;28;20213;-47
2021/11/11 03:46:30;;;;;;;6.50;5.87;;;;;21.10;101250.00;;;;2079012;28;20205;-48
2021/11/11 03:47:31;;;;;;;6.67;6.17;;;;;21.10;101259.00;;;;2078929;28;20213;-48
2021/11/11 03:48:31;;;;;;;6.73;6.13;;;;;21.00;101252.00;;;;2079115;28;20753;-48
2021/11/11 03:49:31;;;;;;;6.93;6.23;;;;;21.00;101253.00;;;;2078068;28;20210;-49
2021/11/11 03:50:32;;;;;;;6.23;5.73;;;;;21.00;101252.00;;;;2079041;28;20198;-48
2021/11/11 03:51:32;;;;;;;6.50;5.90;;;;;21.00;101253.00;;;;2078839;28;20213;-50
2021/11/11 03:52:33;;;;;;;6.30;5.80;;;;;21.00;101257.00;;;;2078534;28;20205;-49
2021/11/11 03:53:34;;;;;;;6.70;6.10;;;;;21.00;101262.00;;;;2078754;28;20206;-50
2021/11/11 03:54:35;;;;;;;6.57;5.97;;;;;21.10;101264.00;;;;2078687;28;20852;-49
2021/11/11 03:55:35;;;;;;;6.77;6.17;;;;;21.00;101262.00;;;;2076219;28;20198;-50
2021/11/11 03:56:36;;;;;;;5.60;5.20;;;;;21.00;101266.00;;;;2078690;28;20740;-47
2021/11/11 03:57:37;;;;;;;6.45;5.85;;;;;21.00;101253.00;;;;2078394;28;20283;-49
2021/11/11 03:58:37;;;;;;;5.13;4.63;;;;;21.10;101263.00;;;;2078208;28;20315;-50
2021/11/11 03:59:38;;;;;;;6.03;5.53;;;;;21.00;101257.00;;;;2075462;28;20308;-49
2021/11/11 04:00:38;;;;;;;6.03;5.53;;;;;20.90;101261.00;;;;2072483;28;20225;-49
2021/11/11 04:01:39;;;;;;;6.00;5.50;;;;;21.00;101263.00;;;;2072098;28;20648;-49
2021/11/11 04:02:39;;;;;;;5.63;5.13;;;;;21.00;101260.00;;;;2070914;28;25053;-50
2021/11/11 04:03:39;;;;;;;5.60;5.20;;;;;21.00;101266.00;;;;2070016;28;20894;-50
2021/11/11 04:04:40;;;;;;;6.13;5.63;;;;;21.00;101263.00;;;;2070059;28;20233;-47
2021/11/11 04:05:42;;;;;;;5.50;5.10;;;;;21.00;101257.00;;;;2070860;28;20772;-48
2021/11/11 04:06:42;;;;;;;5.82;5.43;;;;;21.00;101258.00;;;;2065210;28;20544;-48
2021/11/11 04:07:43;;;;;;;6.30;5.50;;;;;21.00;101258.00;;;;2070132;28;21133;-48
2021/11/11 04:08:43;;;;;;;5.67;5.20;;;;;21.00;101264.00;;;;2078243;28;20213;-49
2021/11/11 04:09:45;;;;;;;5.50;5.10;;;;;21.00;101258.00;;;;2078407;28;20224;-49
2021/11/11 04:10:46;;;;;;;6.35;5.85;;;;;21.00;101252.00;;;;2078104;28;20217;-49
2021/11/11 04:11:48;;;;;;;5.70;5.20;;;;;21.00;101256.00;;;;2076581;28;20351;-48
2021/11/11 04:12:48;;;;;;;6.35;5.85;;;;;21.00;101254.00;;;;2078960;28;20702;-50
2021/11/11 04:13:48;;;;;;;5.87;5.37;;;;;21.00;101250.00;;;;2078817;28;20213;-47
2021/11/11 04:14:49;;;;;;;6.17;5.67;;;;;21.00;101250.00;;;;2078686;28;20646;-49
2021/11/11 04:15:49;;;;;;;6.53;5.87;;;;;21.00;101257.00;;;;2071046;28;20339;-49
2021/11/11 04:16:50;;;;;;;6.30;5.70;;;;;21.00;101247.00;;;;2070738;28;20222;-47
2021/11/11 04:17:50;;;;;;;5.90;5.40;;;;;21.00;101250.00;;;;2070639;28;20218;-49
2021/11/11 04:18:50;;;;;;;6.03;5.53;;;;;21.00;101250.00;;;;2068492;28;20214;-51
2021/11/11 04:19:51;;;;;;;5.87;5.40;;;;;21.00;101250.00;;;;2065373;28;20225;-47
2021/11/11 04:20:52;;;;;;;5.33;4.83;;;;;21.00;101249.00;;;;2070455;28;20218;-49
2021/11/11 04:21:53;;;;;;;5.53;5.03;;;;;21.00;101249.00;;;;2073573;28;20206;-50
2021/11/11 04:22:53;;;;;;;6.17;5.57;;;;;21.00;101248.00;;;;2071685;28;20449;-51
2021/11/11 04:23:54;;;;;;;5.50;5.00;;;;;21.00;101249.00;;;;2070707;28;20689;-50
2021/11/11 04:24:56;;;;;;;6.17;5.67;;;;;20.90;101253.00;;;;2074356;28;20821;-49
2021/11/11 04:26:14;;;;;;;5.85;5.35;;;;;20.90;101249.00;;;;2070519;28;20843;-48
2021/11/11 04:27:21;;;;;;;5.70;5.22;;;;;21.00;101257.00;;;;2070638;28;20253;-49
2021/11/11 04:28:30;;;;;;;6.20;5.68;;;;;20.90;101256.00;;;;2070485;28;20682;-50
2021/11/11 04:29:34;;;;;;;6.00;5.47;;;;;20.90;101249.00;;;;2074166;28;20873;-48
2021/11/11 04:30:35;;;;;;;5.72;5.22;;;;;20.90;101250.00;;;;2072459;28;20764;-48
2021/11/11 04:31:44;;;;;;;5.80;5.20;;;;;20.90;101249.00;;;;2071607;28;20694;-47
2021/11/11 04:32:45;;;;;;;5.80;5.30;;;;;20.90;101253.00;;;;2070510;28;20221;-49
2021/11/11 04:33:47;;;;;;;6.43;5.83;;;;;20.90;101251.00;;;;2070341;28;20222;-48
2021/11/11 04:34:53;;;;;;;6.30;5.80;;;;;20.90;101258.00;;;;2069334;28;20271;-47
2021/11/11 04:35:59;;;;;;;6.15;5.55;;;;;20.90;101253.00;;;;2066577;28;20578;-48
2021/11/11 04:43:54;;;;;;;6.22;5.57;;;;;20.90;101267.00;;;;2077871;28;20213;-50
2021/11/11 04:47:00;;;;;;;6.43;5.82;;;;;20.90;101269.00;;;;2078200;28;20213;-48
2021/11/11 04:48:26;;;;;;;5.80;5.30;;;;;20.90;101276.00;;;;2077687;28;20213;-48
2021/11/11 04:52:03;;;;;;;6.22;5.63;;;;;20.80;101266.00;;;;2078707;28;20223;-49
2021/11/11 05:00:59;;;;;;;5.13;4.72;;;;;20.70;101283.00;;;;2070522;28;20226;-49
2021/11/11 05:03:18;;;;;;;5.50;5.00;;;;;20.80;101279.00;;;;2070566;28;20213;-49
2021/11/11 05:04:18;;;;;;;5.90;5.40;;;;;20.80;101277.00;;;;2070458;28;20306;-48
2021/11/11 05:05:19;;;;;;;5.37;4.90;;;;;20.80;101277.00;;;;2070509;28;20695;-49
2021/11/11 05:06:19;;;;;;;5.70;5.30;;;;;20.80;101280.00;;;;2074997;28;20225;-49
2021/11/11 05:07:19;;;;;;;5.80;5.30;;;;;20.80;101274.00;;;;2080180;28;20217;-47
2021/11/11 05:08:20;;;;;;;5.50;5.00;;;;;20.80;101275.00;;;;2080407;28;20217;-47
2021/11/11 05:09:20;;;;;;;5.63;5.20;;;;;20.70;101280.00;;;;2079122;28;20328;-47
2021/11/11 05:10:21;;;;;;;5.13;4.73;;;;;20.70;101281.00;;;;2080336;28;20308;-49
2021/11/11 05:11:21;;;;;;;6.00;5.40;;;;;20.80;101274.00;;;;2079959;28;20279;-48
2021/11/11 05:12:22;;;;;;;6.20;5.70;;;;;20.70;101277.00;;;;2080379;28;20244;-48
2021/11/11 05:13:23;;;;;;;5.47;5.07;;;;;20.70;101284.00;;;;2080300;28;20220;-49
2021/11/11 05:14:23;;;;;;;5.73;5.20;;;;;20.70;101279.00;;;;2079890;28;20628;-49
2021/11/11 05:15:24;;;;;;;5.77;5.13;;;;;20.70;101284.00;;;;2080327;28;20444;-49
2021/11/11 05:16:24;;;;;;;5.97;5.47;;;;;20.80;101287.00;;;;2080231;28;20221;-49
2021/11/11 05:17:24;;;;;;;5.50;5.10;;;;;20.80;101281.00;;;;2080207;28;20271;-49
2021/11/11 05:18:25;;;;;;;5.90;5.40;;;;;20.70;101284.00;;;;2079764;28;20213;-49
2021/11/11 05:19:25;;;;;;;5.83;5.33;;;;;20.70;101291.00;;;;2079018;28;20301;-50
2021/11/11 05:20:26;;;;;;;6.10;5.60;;;;;20.80;101282.00;;;;2080018;28;20214;-49
2021/11/11 05:21:26;;;;;;;5.23;4.73;;;;;20.70;101293.00;;;;2080134;28;20205;-49